x

Portland 12 Nm Southeast Of Portland,me (44007) Wave Buoy

12:50pm - Thu 10th Jul 2014 All times are EDT. -4 hours from GMT.

  • Sig Wave height 2.3ft
  • Swell Direction
  • Peak Period 8s
  • Average Period 5s
  • Wind
    9mph, 11mph gusts
  • Sea Temp 58°f
  • Air Temp 62°f
  • Sea Pressure 1017.9mb
  • Portland 12 Nm Southeast Of Portland,me
  • Portland 12 Nm Southeast Of Portland,me

More Historic Weather Station data

Upgrade to MSW Pro to gain access to the past 30 days of data for over 8000 Wavebouys and Weather Stations around the globe.

Join Pro

Comparision Forecast

View Surf forecast
   
Thu 07/10 12:50pm 2.5ft 8s 5s 9 11 mph 1017.9mb 58f 62f
11:50am 2.5ft 8s 5s 7 9 mph 1017.8mb 58f 62f
10:50am 2.5ft 7s 5s 7
mph
1017.4mb 58f 60f
9:50am 2.5ft 8s 5s 9
mph
1017.1mb 57f 60f
8:50am 2.5ft 8s 5s 4
mph
1016.9mb 57f 59f
7:50am 3ft 7s 6s 9
mph
1016.2mb 56f 59f
6:50am 2.5ft 8s 5s 11
mph
1015.7mb 55f 59f
5:50am 2.5ft 8s 5s 11
mph
1015mb 55f 59f
4:50am 2.5ft 8s 5s 9 11 mph 1014.3mb 55f 59f
3:50am 3ft 8s 5s 9 11 mph 1013.7mb 56f 59f
2:50am 2.5ft 5s 5s 9
mph
1013.2mb 56f 60f
1:50am 3ft 5s 5s 9 11 mph 1012.8mb 56f 60f
12:50am 3ft 5s 5s 11
mph
1013.1mb 57f 64f
Wed 07/09 11:50pm 3.5ft 8s 5s 7 9 mph 1012.6mb 56f 62f
10:50pm 3ft 8s 5s 9 11 mph 1011.9mb 57f 62f
9:50pm 3.5ft 8s 5s 11 13 mph 1011.4mb 58f 64f
8:50pm 3.5ft 8s 5s 13 16 mph 1011mb 58f 66f
7:50pm 3.5ft 7s 5s 9 11 mph 1010.3mb 58f 63f
6:50pm 3.5ft 7s 5s 9
mph
1010.1mb 57f 63f
5:50pm 3.5ft 7s 5s 11 13 mph 1010.1mb 57f 63f
4:50pm 3.5ft 7s 5s 16 18 mph 1010mb 56f 64f
3:50pm 3.5ft 7s 5s 13
mph
1010.3mb 57f 63f
2:50pm 3.5ft 7s 5s 13 16 mph 1010.1mb 57f 62f
1:50pm 3.5ft 6s 5s 13 16 mph 1009.6mb 56f 62f
12:50pm 4.5ft 7s 5s 11
mph
1009.7mb 55f 62f
11:50am 4.5ft 7s 5s 13 16 mph 1009.2mb 55f 62f
10:50am 4.5ft 6s 5s 13 16 mph 1008.8mb 56f 62f
9:50am 4ft 7s 6s 13
mph
1008.3mb 56f 61f
8:50am 4ft 7s 6s 13
mph
1007.9mb 57f 61f
7:50am 4.5ft 7s 6s 11
mph
1007.3mb 57f 62f
6:50am 4ft 6s 5s 13 16 mph 1006.4mb 57f 63f
5:50am 4.5ft 7s 5s 13 16 mph 1005.2mb 57f 60f
4:50am 4.5ft 7s 5s 16 18 mph 1003.9mb 58f 61f
3:50am 4.5ft 6s 5s 20 25 mph 1003.1mb 58f 63f
2:50am 5ft 7s 5s 18 20 mph 1002.8mb 58f 63f
1:50am 5ft 6s 5s 18 22 mph 1003.1mb 58f 64f
12:50am 5ft 6s 5s 20 25 mph 1003.4mb 59f 64f
Tue 07/08 11:50pm 4.5ft 5s 5s 16 18 mph 1004mb 59f 64f
10:50pm 4.5ft 5s 4s 20 25 mph 1003.8mb 59f 65f
9:50pm 4ft 5s 4s 20 22 mph 1004.5mb 60f 65f
8:50pm 3.5ft 5s 4s 16 18 mph 1004.2mb 60f 65f
7:50pm 3ft 5s 4s 16 18 mph 1004.3mb 60f 65f
6:50pm 2.5ft 6s 4s 11 13 mph 1004.9mb 59f 65f
5:50pm 2.5ft 6s 4s 18 20 mph 1004.8mb 58f 66f
4:50pm 2.5ft 5s 4s 16 18 mph 1005.3mb 58f 66f
3:50pm 2.5ft 6s 4s 13
mph
1006.3mb 57f 66f
2:50pm 2.5ft 6s 4s 11 13 mph 1006.7mb 57f 65f
1:50pm 2.5ft 4s 4s 11 13 mph 1007.1mb 56f 65f
12:50pm 2.5ft 5s 4s 13 18 mph 1007.7mb 57f 64f
11:50am 2.5ft 6s 4s 13 16 mph 1007.8mb 56f 63f
10:50am 2.5ft 5s 4s 16 18 mph 1007.5mb 56f 63f
9:50am 2.5ft 6s 5s 11 13 mph 1007.4mb 56f 62f
8:50am 2.5ft 6s 5s 11 16 mph 1007.1mb 56f 61f
7:50am 3ft 6s 5s 11 13 mph 1006.2mb 56f 60f
6:50am 2.5ft 6s 4s 11 13 mph 1005.5mb 56f 60f
5:50am 3ft 7s 5s 13
mph
1005.5mb 56f 61f
4:50am 3ft 7s 5s 11
mph
1005.4mb 56f 61f
3:50am 3.5ft 6s 5s 11
mph
1005.8mb 57f 60f
2:50am 3.5ft 6s 5s 13 16 mph 1006mb 57f 62f
1:50am 3.5ft 7s 5s 13 18 mph 1005.9mb 57f 63f
12:50am 3.5ft 7s 5s 13 16 mph 1005.1mb 57f 62f
Mon 07/07 11:50pm 3.5ft 7s 5s 11 13 mph 1005.4mb 57f 63f
10:50pm 3.5ft 7s 5s 18 20 mph 1006mb 58f 65f
9:50pm 4ft 6s 5s 13 16 mph 1005.6mb 59f 63f
8:50pm 4ft 6s 5s 16 18 mph 1004.8mb 60f 64f
7:50pm 4.5ft 6s 5s 11 13 mph 1004.6mb 60f 65f
6:50pm 4ft 6s 5s 13
mph
1004.7mb 60f 64f
5:50pm 3.5ft 5s 4s 16 18 mph 1004.1mb 60f 64f
4:50pm 3.5ft 5s 4s 18 20 mph 1004.4mb 60f 65f
3:50pm 3ft 5s 4s 16 18 mph 1005.3mb 59f 65f
2:50pm 3ft 4s 4s 16
mph
1005.7mb 59f 64f
1:50pm 3ft 5s 4s 16 18 mph 1006.1mb 59f 63f
12:50pm 2.5ft 6s 4s 16 18 mph 1007.3mb 59f 63f
11:50am 2.5ft 6s 5s 13 16 mph 1007.7mb 59f 63f
10:50am 2.5ft 5s 5s 9 11 mph 1008.5mb 59f 62f
9:50am 2.5ft 6s 4s 11 13 mph 1008.8mb 59f 62f
8:50am 2.5ft 5s 4s 13 16 mph 1008.8mb 58f 62f
7:50am 2.5ft 5s 4s 9
mph
1009.4mb 58f 60f
6:50am 2.5ft 6s 5s 11 13 mph 1008.8mb 58f 61f
5:50am 2.5ft 6s 5s 7 9 mph 1009.1mb 58f 60f
4:50am 2.5ft 5s 4s 9
mph
1009.2mb 58f 61f
3:50am 2ft 4s 4s 9 11 mph 1009.3mb 58f 61f
2:50am 1.6ft 4s 4s 11
mph
1009.5mb 58f 62f
1:50am 1.3ft 4s 4s 13 16 mph 1009.6mb 58f 62f
12:50am 1.3ft 4s 4s 13 16 mph 1009.6mb 58f 63f
Sun 07/06 11:50pm 1.6ft 4s 4s 13 16 mph 1009.9mb 59f 65f
10:50pm 1.6ft 4s 4s 11 13 mph 1009.8mb 59f 64f
9:50pm 1.6ft 4s 4s 11
mph
1010.3mb 59f 64f
8:50pm 2ft 4s 4s 11 13 mph 1009.6mb 59f 66f
7:50pm 2.5ft 5s 4s 7 9 mph 1009.3mb 60f 67f
6:50pm 2.5ft 4s 4s 13 16 mph 1008.9mb 59f 73f